Main page
METAR-TAF:

METAR-TAF

Airports :

Chlef, Algeria

Chlef International Airport

latitude: 36-13N, longitude: 001-20E, elevation: 143 m

Current weather observation

The report was made 30 minutes ago, at 07:00 UTC
Wind 6 kt from the Southwest
Temperature 10°C
Humidity 57%
Pressure 1018 hPa
Visibility 10 km or more
no clouds below 1500 m and no cumulonimbus

METAR: DAOI 220700Z 23006KT CAVOK 10/02 Q1018

Time: 08:30 (07:30 UTC)

Forecast

The report was made 2 hours and 30 minutes ago, at 05:00 UTC
Forecast valid from 22 at 06 UTC to 23 at 06 UTC
Wind 2 kt from variable directions
Visibility 10 km or more
no clouds below 1500 m and no cumulonimbus
Temporary
from 22 at 10 UTC to 22 at 16 UTC
Wind 10 kt from the North

TAF: DAOI 220500Z 2206/2306 VRB02KT CAVOK TEMPO 2210/2216 35010KT

Weather observations and forecasts of more than 4000 airports (METAR and TAF reports).

The available stations are represented by yellow and red dots on the map.

Hover mouse over dot to see the name of the station.

Then click to see weather observations and forecasts.

To change the map : click on the green buttons with a black cross to zoom in, on the green button with a dash to zoom out, or on the green arrows for adjacent maps.


METAR-TAF: